Time;durP1;ratioP1;P1;durP2;ratioP2;P2;SDS_P1;SDS_P2;PMS_P1;PMS_P2;Temp;Humidity;BMP_temperature;BMP_pressure;BME280_temperature;BME280_humidity;BME280_pressure;Samples;Min_cycle;Max_cycle;Signal;HPM_P1;HPM_P2
2024/03/28 00:01:17;;;;;;;2.05;1.25;;;4.40;99.90;;;;;;6275526;22;20179;-73
2024/03/28 00:04:20;;;;;;;0.52;0.52;;;4.40;99.90;;;;;;6277235;22;20512;-73
2024/03/28 00:07:22;;;;;;;0.40;0.40;;;4.30;99.90;;;;;;6277479;22;20172;-74
2024/03/28 00:10:25;;;;;;;0.40;0.40;;;4.30;99.90;;;;;;6278046;22;20586;-74
2024/03/28 00:13:31;;;;;;;0.40;0.40;;;4.20;99.90;;;;;;6278477;22;20637;-75
2024/03/28 00:16:34;;;;;;;1.85;1.23;;;4.10;99.90;;;;;;6250901;22;20183;-76
2024/03/28 00:19:38;;;;;;;0.45;0.45;;;4.20;99.90;;;;;;6277453;22;20174;-75
2024/03/28 00:22:41;;;;;;;0.30;0.30;;;4.10;99.90;;;;;;6277842;22;20172;-76
2024/03/28 00:25:44;;;;;;;0.30;0.30;;;4.20;99.90;;;;;;6277232;22;20685;-76
2024/03/28 00:28:49;;;;;;;0.30;0.30;;;4.10;99.90;;;;;;6250067;22;20180;-76
2024/03/28 00:31:52;;;;;;;0.40;0.40;;;4.20;99.90;;;;;;6277057;22;20645;-76
2024/03/28 00:34:58;;;;;;;0.30;0.30;;;4.20;99.90;;;;;;6277080;22;20210;-76
2024/03/28 00:38:01;;;;;;;0.30;0.30;;;4.20;99.90;;;;;;6276981;22;20564;-75
2024/03/28 00:41:04;;;;;;;0.30;0.30;;;4.20;99.90;;;;;;6276989;22;20668;-76
2024/03/28 00:44:07;;;;;;;0.38;0.38;;;4.20;99.90;;;;;;6276833;22;20175;-76
2024/03/28 00:47:10;;;;;;;0.63;0.63;;;4.20;99.90;;;;;;6249082;22;20233;-76
2024/03/28 00:50:13;;;;;;;0.35;0.35;;;4.10;99.90;;;;;;6277025;22;20609;-75
2024/03/28 00:53:16;;;;;;;0.40;0.40;;;4.10;99.90;;;;;;6276941;22;20176;-76
2024/03/28 00:56:22;;;;;;;0.60;0.60;;;4.10;99.90;;;;;;6249804;22;20176;-76
2024/03/28 00:59:25;;;;;;;0.40;0.40;;;4.00;99.90;;;;;;6277149;22;20168;-75
2024/03/28 01:02:28;;;;;;;0.30;0.30;;;4.00;99.90;;;;;;6276759;22;20171;-76
2024/03/28 01:05:31;;;;;;;0.40;0.40;;;4.00;99.90;;;;;;6276862;22;20168;-77
2024/03/28 01:08:34;;;;;;;0.30;0.30;;;3.90;99.90;;;;;;6277058;22;20204;-75
2024/03/28 01:11:37;;;;;;;0.30;0.30;;;3.80;99.90;;;;;;6277175;22;20172;-76
2024/03/28 01:14:40;;;;;;;0.30;0.30;;;3.70;99.90;;;;;;6276347;22;20223;-77
2024/03/28 01:17:43;;;;;;;0.40;0.40;;;3.70;99.90;;;;;;6276929;22;20632;-76
2024/03/28 01:20:46;;;;;;;0.70;0.70;;;3.60;99.90;;;;;;6276820;22;20254;-77
2024/03/28 01:23:49;;;;;;;0.70;0.70;;;3.60;99.90;;;;;;6276641;22;20188;-77
2024/03/28 01:26:52;;;;;;;1.80;0.93;;;3.70;99.90;;;;;;6276852;22;20593;-76
2024/03/28 01:29:55;;;;;;;0.43;0.43;;;3.60;99.90;;;;;;6276837;22;20199;-76
2024/03/28 01:32:58;;;;;;;1.45;1.23;;;3.60;99.90;;;;;;6276557;22;20183;-76
2024/03/28 01:36:01;;;;;;;0.28;0.28;;;3.60;99.90;;;;;;6276486;22;20176;-76
2024/03/28 01:39:04;;;;;;;0.30;0.30;;;3.60;99.90;;;;;;6276469;22;20179;-76
2024/03/28 01:42:08;;;;;;;0.30;0.30;;;3.60;99.90;;;;;;6276414;22;20196;-76
2024/03/28 01:45:11;;;;;;;0.40;0.40;;;3.60;99.90;;;;;;6276286;22;20175;-76
2024/03/28 01:48:14;;;;;;;0.40;0.40;;;3.60;99.90;;;;;;6276443;22;20179;-76
2024/03/28 01:51:19;;;;;;;0.60;0.60;;;3.50;99.90;;;;;;6276363;22;20203;-76
2024/03/28 01:54:21;;;;;;;0.40;0.40;;;3.50;99.90;;;;;;6276336;22;20188;-76
2024/03/28 01:57:24;;;;;;;0.30;0.30;;;3.50;99.90;;;;;;6276575;22;20602;-76
2024/03/28 02:00:27;;;;;;;0.40;0.40;;;3.50;99.90;;;;;;6276096;22;20605;-76
2024/03/28 02:03:30;;;;;;;1.75;1.05;;;3.40;99.90;;;;;;6275712;22;20176;-76
2024/03/28 02:06:33;;;;;;;0.40;0.40;;;3.40;99.90;;;;;;6276039;22;20172;-76
2024/03/28 02:09:36;;;;;;;0.40;0.40;;;3.40;99.90;;;;;;6275978;22;20178;-77
2024/03/28 02:12:39;;;;;;;0.30;0.30;;;3.30;99.90;;;;;;6276015;22;20504;-76
2024/03/28 02:15:42;;;;;;;0.73;0.73;;;3.20;99.90;;;;;;6276239;22;20183;-76
2024/03/28 02:18:45;;;;;;;0.40;0.40;;;3.30;99.90;;;;;;6276526;22;20168;-77
2024/03/28 02:21:48;;;;;;;0.40;0.40;;;3.30;99.90;;;;;;6276928;22;20214;-77
2024/03/28 02:24:51;;;;;;;0.32;0.32;;;3.20;99.90;;;;;;6276194;22;20618;-77
2024/03/28 02:27:54;;;;;;;0.30;0.30;;;3.20;99.90;;;;;;6276500;22;20171;-77
2024/03/28 02:30:58;;;;;;;0.60;0.60;;;3.20;99.90;;;;;;6248715;22;20195;-76
2024/03/28 02:34:01;;;;;;;0.20;0.20;;;3.10;99.90;;;;;;6275813;22;20209;-76
2024/03/28 02:37:04;;;;;;;0.30;0.30;;;3.10;99.90;;;;;;6276135;22;20243;-76
2024/03/28 02:40:07;;;;;;;0.38;0.38;;;3.10;99.90;;;;;;6275875;22;20204;-76
2024/03/28 02:43:10;;;;;;;0.98;0.98;;;3.10;99.90;;;;;;6275739;22;20175;-76
2024/03/28 02:46:13;;;;;;;0.30;0.30;;;3.00;99.90;;;;;;6275986;22;20247;-76
2024/03/28 02:49:16;;;;;;;0.30;0.30;;;3.00;99.90;;;;;;6276082;22;20179;-76
2024/03/28 02:52:19;;;;;;;0.35;0.35;;;3.00;99.90;;;;;;6275842;22;20513;-76
2024/03/28 02:55:22;;;;;;;0.50;0.50;;;3.00;99.90;;;;;;6275794;22;20606;-76
2024/03/28 02:58:25;;;;;;;2.15;0.70;;;3.00;99.90;;;;;;6276002;22;20168;-77
2024/03/28 03:01:28;;;;;;;0.70;0.70;;;2.90;99.90;;;;;;6276104;22;20221;-76
2024/03/28 03:04:31;;;;;;;5.68;0.82;;;2.80;99.90;;;;;;6275796;22;20621;-76
2024/03/28 03:07:34;;;;;;;0.40;0.40;;;2.80;99.90;;;;;;6248768;22;20693;-77
2024/03/28 03:10:37;;;;;;;0.50;0.50;;;2.70;99.90;;;;;;6275951;22;20220;-77
2024/03/28 03:13:40;;;;;;;0.30;0.30;;;2.60;99.90;;;;;;6275990;22;20636;-77
2024/03/28 03:16:43;;;;;;;0.77;0.77;;;2.50;99.90;;;;;;6275927;22;20168;-77
2024/03/28 03:19:46;;;;;;;0.30;0.30;;;2.40;99.90;;;;;;6248654;22;20179;-76
2024/03/28 03:22:51;;;;;;;0.40;0.40;;;2.40;99.90;;;;;;6276015;22;20656;-76
2024/03/28 03:26:00;;;;;;;0.30;0.30;;;2.30;99.90;;;;;;6275818;22;20183;-76
2024/03/28 03:35:47;;;;;;;0.30;0.30;;;2.60;99.90;;;;;;6275614;22;20188;-76
2024/03/28 03:38:50;;;;;;;0.30;0.30;;;2.70;99.90;;;;;;6275579;22;20271;-76
2024/03/28 03:41:53;;;;;;;0.30;0.30;;;2.70;99.90;;;;;;6275824;22;20609;-76
2024/03/28 03:44:56;;;;;;;0.60;0.60;;;2.70;99.90;;;;;;6275545;22;20175;-76
2024/03/28 03:47:59;;;;;;;0.40;0.40;;;2.70;99.90;;;;;;6275398;22;20180;-76
2024/03/28 03:51:02;;;;;;;0.30;0.30;;;2.60;99.90;;;;;;6275256;22;20572;-76
2024/03/28 03:54:05;;;;;;;0.30;0.30;;;2.50;99.90;;;;;;6275193;22;20528;-76
2024/03/28 03:57:08;;;;;;;0.30;0.30;;;2.50;99.90;;;;;;6275422;22;20172;-76
2024/03/28 04:00:11;;;;;;;0.50;0.50;;;2.50;99.90;;;;;;6275353;22;20512;-76
2024/03/28 04:03:15;;;;;;;0.30;0.30;;;2.40;99.90;;;;;;6274768;22;20168;-76
2024/03/28 04:06:18;;;;;;;0.73;0.73;;;2.50;99.90;;;;;;6275123;22;20179;-76
2024/03/28 04:09:21;;;;;;;0.35;0.35;;;2.60;99.90;;;;;;6275691;22;20168;-76
2024/03/28 04:12:24;;;;;;;0.40;0.40;;;2.60;99.90;;;;;;6248296;22;20184;-76
2024/03/28 04:15:27;;;;;;;0.40;0.40;;;2.70;99.90;;;;;;6275368;22;20279;-76
2024/03/28 04:18:30;;;;;;;0.40;0.40;;;2.70;99.90;;;;;;6248198;22;20208;-76
2024/03/28 04:21:36;;;;;;;7.00;1.67;;;2.80;99.90;;;;;;6275529;22;20238;-76
2024/03/28 04:24:40;;;;;;;0.28;0.28;;;2.80;99.90;;;;;;6248133;22;20188;-76
2024/03/28 04:27:44;;;;;;;0.40;0.40;;;2.70;99.90;;;;;;6248202;22;20618;-76
2024/03/28 04:30:47;;;;;;;0.68;0.68;;;2.60;99.90;;;;;;6275218;22;20195;-75
2024/03/28 04:33:49;;;;;;;0.38;0.38;;;2.60;99.90;;;;;;6275234;22;20211;-76
2024/03/28 04:36:53;;;;;;;0.50;0.50;;;2.60;99.90;;;;;;6275228;22;20176;-76
2024/03/28 04:39:56;;;;;;;0.40;0.40;;;2.60;99.90;;;;;;6275372;22;20207;-75
2024/03/28 04:42:59;;;;;;;0.40;0.40;;;2.60;99.90;;;;;;6274987;22;20196;-74
2024/03/28 04:46:01;;;;;;;0.57;0.57;;;2.60;99.90;;;;;;6275045;22;20537;-74
2024/03/28 04:49:07;;;;;;;0.20;0.20;;;2.60;99.90;;;;;;6274899;22;20171;-75
2024/03/28 04:52:11;;;;;;;0.30;0.30;;;2.60;99.90;;;;;;6276901;22;20632;-75
2024/03/28 04:55:14;;;;;;;0.32;0.32;;;2.60;99.90;;;;;;6276620;22;20617;-74
2024/03/28 04:58:16;;;;;;;0.40;0.40;;;2.60;99.90;;;;;;6275122;22;20531;-75
2024/03/28 05:01:19;;;;;;;0.40;0.40;;;2.60;99.90;;;;;;6276949;22;20171;-75
2024/03/28 05:04:22;;;;;;;0.28;0.28;;;2.70;99.90;;;;;;6276720;22;20666;-76
2024/03/28 05:07:26;;;;;;;0.30;0.30;;;2.60;99.90;;;;;;6249967;22;20206;-76
2024/03/28 05:10:29;;;;;;;0.95;0.95;;;2.70;99.90;;;;;;6249778;22;20175;-76
2024/03/28 05:13:32;;;;;;;0.88;0.85;;;2.70;99.90;;;;;;6276847;22;20179;-76
2024/03/28 05:16:35;;;;;;;0.88;0.88;;;2.70;99.90;;;;;;6276850;22;20168;-75
2024/03/28 05:19:38;;;;;;;0.40;0.40;;;2.80;99.90;;;;;;6276928;22;20255;-75
2024/03/28 05:22:40;;;;;;;0.70;0.70;;;2.80;99.90;;;;;;6277390;22;20195;-76
2024/03/28 05:25:43;;;;;;;0.40;0.40;;;2.90;99.90;;;;;;6249625;22;20180;-76
2024/03/28 05:28:46;;;;;;;0.75;0.70;;;2.90;99.90;;;;;;6276897;22;20246;-75
2024/03/28 05:31:49;;;;;;;0.35;0.35;;;3.00;99.90;;;;;;6276609;22;20838;-75
2024/03/28 05:34:52;;;;;;;1.00;0.95;;;3.00;99.90;;;;;;6249956;22;20633;-74
2024/03/28 05:37:55;;;;;;;0.75;0.75;;;3.00;99.90;;;;;;6276689;22;20617;-75
2024/03/28 05:40:58;;;;;;;0.57;0.57;;;3.00;99.90;;;;;;6276512;22;20180;-75
2024/03/28 05:44:01;;;;;;;0.30;0.30;;;3.00;99.90;;;;;;6276103;22;20176;-75
2024/03/28 05:47:04;;;;;;;0.40;0.40;;;3.10;99.90;;;;;;6276319;22;20183;-74
2024/03/28 05:50:07;;;;;;;0.40;0.40;;;3.20;99.90;;;;;;6276307;22;20178;-75
2024/03/28 05:53:10;;;;;;;0.25;0.25;;;3.10;99.90;;;;;;6276469;22;20711;-74
2024/03/28 05:56:13;;;;;;;0.40;0.40;;;3.20;99.90;;;;;;6276278;22;20183;-74
2024/03/28 05:59:17;;;;;;;0.38;0.38;;;3.30;99.90;;;;;;6276343;22;20640;-75
2024/03/28 06:02:20;;;;;;;0.60;0.60;;;3.50;99.90;;;;;;6249049;22;20190;-75
2024/03/28 06:05:23;;;;;;;0.40;0.40;;;3.50;99.90;;;;;;6276210;22;20176;-74
2024/03/28 06:08:26;;;;;;;0.40;0.40;;;3.60;99.90;;;;;;6249150;22;20180;-75
2024/03/28 06:11:29;;;;;;;1.05;0.65;;;3.70;99.90;;;;;;6276224;22;20171;-74
2024/03/28 06:14:32;;;;;;;0.40;0.40;;;3.80;99.90;;;;;;6276013;22;20188;-75
2024/03/28 06:17:35;;;;;;;1.02;0.93;;;3.90;99.90;;;;;;6276263;22;20168;-75
2024/03/28 06:20:41;;;;;;;0.73;0.70;;;4.00;99.90;;;;;;6276180;22;20172;-74
2024/03/28 06:23:44;;;;;;;0.50;0.50;;;4.10;99.90;;;;;;6276126;22;20637;-75
2024/03/28 06:26:47;;;;;;;0.28;0.28;;;4.10;99.90;;;;;;6276172;22;20171;-74
2024/03/28 06:29:50;;;;;;;0.30;0.30;;;4.20;99.90;;;;;;6276253;22;20194;-75
2024/03/28 06:32:53;;;;;;;1.58;1.48;;;4.40;99.90;;;;;;6275894;22;20191;-74
2024/03/28 06:35:57;;;;;;;0.50;0.50;;;4.40;99.90;;;;;;6248738;22;20180;-74
2024/03/28 06:39:00;;;;;;;5.85;0.80;;;4.60;99.90;;;;;;6248653;22;20180;-74
2024/03/28 06:42:03;;;;;;;0.40;0.40;;;4.70;99.90;;;;;;6275619;22;20171;-74
2024/03/28 06:45:06;;;;;;;0.60;0.60;;;4.80;99.90;;;;;;6275710;22;20182;-74
2024/03/28 06:48:09;;;;;;;1.85;1.42;;;4.90;99.90;;;;;;6275837;22;20175;-74
2024/03/28 06:51:12;;;;;;;0.30;0.30;;;5.00;99.90;;;;;;6275885;22;20503;-73
2024/03/28 06:54:14;;;;;;;0.50;0.50;;;5.10;99.90;;;;;;6275618;22;20187;-73
2024/03/28 06:57:18;;;;;;;0.40;0.40;;;5.30;99.90;;;;;;6248677;22;20180;-74
2024/03/28 07:00:20;;;;;;;0.30;0.30;;;5.40;99.90;;;;;;6276007;22;20174;-75
2024/03/28 07:10:36;;;;;;;0.30;0.30;;;5.90;99.90;;;;;;6192341;22;20174;-75
2024/03/28 07:13:39;;;;;;;0.45;0.45;;;6.00;99.90;;;;;;6275506;22;20199;-75
2024/03/28 07:16:42;;;;;;;0.28;0.28;;;6.00;99.90;;;;;;6275926;22;20168;-75
2024/03/28 07:19:45;;;;;;;0.20;0.20;;;6.20;99.90;;;;;;6275968;22;20245;-74
2024/03/28 07:22:48;;;;;;;0.28;0.28;;;6.20;99.90;;;;;;6276477;22;20225;-75
2024/03/28 07:25:51;;;;;;;0.40;0.40;;;6.20;99.90;;;;;;6275874;22;20175;-76
2024/03/28 07:28:54;;;;;;;0.40;0.40;;;6.30;99.90;;;;;;6275833;22;20605;-74
2024/03/28 07:31:57;;;;;;;0.30;0.30;;;6.40;99.90;;;;;;6248212;22;20199;-74
2024/03/28 07:35:00;;;;;;;0.60;0.60;;;6.50;99.90;;;;;;6275375;22;20188;-76
2024/03/28 07:38:03;;;;;;;1.58;0.95;;;6.70;99.90;;;;;;6275332;22;20259;-75
2024/03/28 07:41:07;;;;;;;0.40;0.40;;;6.80;99.90;;;;;;6248388;22;20243;-75
2024/03/28 07:44:09;;;;;;;0.30;0.30;;;6.90;99.90;;;;;;6275497;22;20621;-75
2024/03/28 07:47:13;;;;;;;0.35;0.35;;;6.90;99.90;;;;;;6248362;22;20180;-76
2024/03/28 07:50:16;;;;;;;0.28;0.28;;;6.90;99.90;;;;;;6275333;22;20652;-76
2024/03/28 07:53:19;;;;;;;0.50;0.50;;;6.90;99.90;;;;;;6248235;22;20629;-76
2024/03/28 07:56:22;;;;;;;0.45;0.45;;;7.00;99.90;;;;;;6275458;22;20218;-75
2024/03/28 07:59:25;;;;;;;0.45;0.45;;;7.10;99.90;;;;;;6248465;22;20172;-76
2024/03/28 08:02:29;;;;;;;1.13;1.00;;;7.20;99.90;;;;;;6275534;22;20168;-75
2024/03/28 08:05:31;;;;;;;0.40;0.40;;;7.30;99.90;;;;;;6275574;22;20176;-74
2024/03/28 08:08:35;;;;;;;0.82;0.82;;;7.30;99.90;;;;;;6275504;22;20229;-75
2024/03/28 08:11:39;;;;;;;0.88;0.85;;;7.30;99.90;;;;;;6275827;22;20175;-77
2024/03/28 08:14:42;;;;;;;0.30;0.30;;;7.30;99.90;;;;;;6275977;22;20233;-77
2024/03/28 08:17:46;;;;;;;0.40;0.40;;;7.30;99.90;;;;;;6277613;22;20179;-77
2024/03/28 08:20:49;;;;;;;0.30;0.30;;;7.50;99.90;;;;;;6277575;22;20488;-77
2024/03/28 08:23:52;;;;;;;0.30;0.30;;;7.60;99.90;;;;;;6251145;22;20233;-76
2024/03/28 08:26:55;;;;;;;0.57;0.57;;;8.00;99.90;;;;;;6279083;22;20199;-77
2024/03/28 08:29:59;;;;;;;1.25;1.15;;;8.40;99.90;;;;;;6279022;22;20180;-77
2024/03/28 08:33:03;;;;;;;0.30;0.30;;;8.60;99.90;;;;;;6277571;22;20187;-77
2024/03/28 08:36:08;;;;;;;0.30;0.30;;;8.50;99.90;;;;;;6277981;22;20687;-78
2024/03/28 08:39:12;;;;;;;0.30;0.30;;;8.40;99.90;;;;;;6277784;22;20168;-76
2024/03/28 08:42:15;;;;;;;0.30;0.30;;;8.50;99.90;;;;;;6277893;22;20527;-77
2024/03/28 08:45:19;;;;;;;0.40;0.40;;;8.70;99.90;;;;;;6280044;22;20180;-77
2024/03/28 08:48:22;;;;;;;0.30;0.30;;;9.00;99.90;;;;;;6279173;22;20653;-77
2024/03/28 08:51:26;;;;;;;0.52;0.52;;;9.20;99.90;;;;;;6251116;22;20229;-76
2024/03/28 08:54:29;;;;;;;0.40;0.40;;;9.40;99.90;;;;;;6279575;22;20183;-77
2024/03/28 08:57:32;;;;;;;0.35;0.35;;;9.70;99.90;;;;;;6251945;22;20180;-76
2024/03/28 09:00:36;;;;;;;0.30;0.30;;;10.20;99.90;;;;;;6281664;22;20171;-78
2024/03/28 09:03:39;;;;;;;0.20;0.20;;;10.20;99.90;;;;;;6278484;22;20485;-77
2024/03/28 09:06:43;;;;;;;0.85;0.82;;;9.90;99.90;;;;;;6254378;22;20240;-78
2024/03/28 09:09:47;;;;;;;0.43;0.43;;;9.80;99.90;;;;;;6286230;22;20195;-76
2024/03/28 09:12:51;;;;;;;0.60;0.60;;;9.60;99.90;;;;;;6281297;22;20686;-76
2024/03/28 09:15:55;;;;;;;0.30;0.30;;;9.60;99.90;;;;;;6250966;22;20195;-77
2024/03/28 09:18:58;;;;;;;0.30;0.30;;;9.50;99.90;;;;;;6277152;22;20172;-76
2024/03/28 09:22:01;;;;;;;0.30;0.30;;;9.50;99.90;;;;;;6249799;22;20618;-76
2024/03/28 09:25:04;;;;;;;0.40;0.40;;;9.40;99.90;;;;;;6276805;22;20179;-76
2024/03/28 09:28:08;;;;;;;0.40;0.40;;;9.20;99.90;;;;;;6276653;22;20497;-76
2024/03/28 09:31:11;;;;;;;0.20;0.20;;;9.10;99.90;;;;;;6276673;22;20199;-76
2024/03/28 09:34:15;;;;;;;0.98;0.95;;;9.00;99.90;;;;;;6276442;22;20271;-75
2024/03/28 09:37:17;;;;;;;0.40;0.40;;;8.80;99.90;;;;;;6276593;22;20629;-76
2024/03/28 09:40:21;;;;;;;0.30;0.30;;;8.60;99.90;;;;;;6276703;22;20172;-76
2024/03/28 09:43:26;;;;;;;0.30;0.30;;;8.40;99.90;;;;;;6276735;22;20175;-76
2024/03/28 09:46:29;;;;;;;0.40;0.40;;;8.30;99.90;;;;;;6276977;22;20172;-76
2024/03/28 09:49:32;;;;;;;0.40;0.40;;;8.20;99.90;;;;;;6276902;22;20175;-75
2024/03/28 09:52:35;;;;;;;0.50;0.50;;;8.20;99.90;;;;;;6276767;22;20254;-75
2024/03/28 09:55:02;;;;;;;0.65;0.65;;;8.30;99.90;;;;;;6249368;22;20199;-76
2024/03/28 09:57:28;;;;;;;0.40;0.40;;;8.30;99.90;;;;;;6276370;22;20618;-76
2024/03/28 09:59:53;;;;;;;1.45;1.20;;;8.30;99.90;;;;;;6276540;22;20168;-76
2024/03/28 10:02:19;;;;;;;0.30;0.30;;;8.30;99.90;;;;;;6276433;22;20168;-76
2024/03/28 10:04:55;;;;;;;0.30;0.30;;;8.40;99.90;;;;;;6276507;22;20178;-76
2024/03/28 10:07:22;;;;;;;3.60;1.23;;;8.30;99.90;;;;;;6276374;22;20222;-76
2024/03/28 10:09:49;;;;;;;1.08;0.60;;;8.30;99.90;;;;;;6276639;22;20240;-77
2024/03/28 10:12:16;;;;;;;0.20;0.20;;;8.30;99.90;;;;;;6276599;22;20203;-76
2024/03/28 10:14:52;;;;;;;0.30;0.30;;;8.20;99.90;;;;;;6276329;22;20179;-76
2024/03/28 10:17:18;;;;;;;0.30;0.30;;;8.10;99.90;;;;;;6276549;22;20633;-76
2024/03/28 10:19:44;;;;;;;0.30;0.30;;;8.10;99.90;;;;;;6249170;22;20195;-76
2024/03/28 10:22:11;;;;;;;0.70;0.70;;;8.00;99.90;;;;;;6276285;22;20606;-76
2024/03/28 10:24:38;;;;;;;0.55;0.55;;;8.00;99.90;;;;;;6275966;22;20205;-76
2024/03/28 10:27:14;;;;;;;0.30;0.30;;;8.00;99.90;;;;;;6276361;22;20629;-76
2024/03/28 10:29:48;;;;;;;0.40;0.40;;;8.00;99.90;;;;;;6276215;22;20764;-77
2024/03/28 10:32:14;;;;;;;0.57;0.57;;;7.90;99.90;;;;;;6276361;22;20202;-76
2024/03/28 10:34:49;;;;;;;0.70;0.70;;;7.90;99.90;;;;;;6276265;22;20556;-77
2024/03/28 10:37:19;;;;;;;0.30;0.30;;;7.90;99.90;;;;;;6276462;22;20164;-77
2024/03/28 10:39:48;;;;;;;0.30;0.30;;;7.90;99.90;;;;;;6276204;22;20602;-76
2024/03/28 10:42:14;;;;;;;0.30;0.30;;;7.90;99.90;;;;;;6275968;22;20172;-76
2024/03/28 10:44:43;;;;;;;0.73;0.60;;;7.90;99.90;;;;;;6275986;22;20219;-77
2024/03/28 10:47:12;;;;;;;0.30;0.30;;;7.90;99.90;;;;;;6248915;22;20678;-76
2024/03/28 10:50:00;;;;;;;0.30;0.30;;;7.90;99.90;;;;;;6275901;22;20628;-77
2024/03/28 10:52:35;;;;;;;0.30;0.30;;;8.00;99.90;;;;;;6248710;22;20630;-76
2024/03/28 10:55:05;;;;;;;0.20;0.20;;;8.10;99.90;;;;;;6275936;22;20262;-76
2024/03/28 10:57:32;;;;;;;0.32;0.32;;;8.10;99.90;;;;;;6248593;22;20179;-77
2024/03/28 10:59:59;;;;;;;0.30;0.30;;;8.20;99.90;;;;;;6248855;22;20176;-77
2024/03/28 11:02:28;;;;;;;9.45;3.45;;;8.20;99.90;;;;;;6275772;22;20653;-76
2024/03/28 11:04:54;;;;;;;0.30;0.30;;;8.20;99.90;;;;;;6275876;22;20683;-77
2024/03/28 11:07:25;;;;;;;0.50;0.50;;;8.20;99.90;;;;;;6248635;22;20610;-76
2024/03/28 11:09:56;;;;;;;0.30;0.30;;;8.30;99.90;;;;;;6276001;22;20168;-76
2024/03/28 11:12:22;;;;;;;0.45;0.45;;;8.30;99.90;;;;;;6275718;22;20245;-76
2024/03/28 11:15:04;;;;;;;0.40;0.40;;;8.30;99.90;;;;;;6275813;22;20614;-76
2024/03/28 11:17:30;;;;;;;0.50;0.50;;;8.30;99.90;;;;;;6275644;22;20164;-75
2024/03/28 11:20:09;;;;;;;0.43;0.43;;;8.40;99.90;;;;;;6248636;22;20169;-76
2024/03/28 11:22:38;;;;;;;1.00;1.00;;;8.40;99.90;;;;;;6248225;22;20183;-76
2024/03/28 11:25:28;;;;;;;0.30;0.30;;;8.40;99.90;;;;;;6275868;22;20254;-77
2024/03/28 11:28:07;;;;;;;0.30;0.30;;;8.50;99.90;;;;;;6275832;22;20172;-77
2024/03/28 11:30:51;;;;;;;0.30;0.30;;;8.50;99.90;;;;;;6267072;22;20243;-76
2024/03/28 11:33:45;;;;;;;0.38;0.38;;;8.50;99.90;;;;;;6244787;23;20197;-76
2024/03/28 11:36:13;;;;;;;0.30;0.30;;;8.60;99.90;;;;;;6218128;23;20173;-77
2024/03/28 11:38:41;;;;;;;0.30;0.30;;;8.60;99.90;;;;;;6217751;23;20177;-76
2024/03/28 11:41:07;;;;;;;0.30;0.30;;;8.60;99.90;;;;;;6245267;23;20169;-76
2024/03/28 11:43:33;;;;;;;0.28;0.28;;;8.60;99.90;;;;;;6218061;23;20633;-76
2024/03/28 11:46:00;;;;;;;0.45;0.45;;;8.50;99.90;;;;;;6245168;23;20173;-76
2024/03/28 11:48:28;;;;;;;1.75;1.25;;;8.50;99.90;;;;;;6244879;23;20529;-76
2024/03/28 11:50:55;;;;;;;0.52;0.52;;;8.50;99.90;;;;;;6245131;23;20618;-76
2024/03/28 11:53:21;;;;;;;1.58;0.60;;;8.50;99.90;;;;;;6244729;23;20583;-76
2024/03/28 11:55:48;;;;;;;0.40;0.40;;;8.40;99.90;;;;;;6245171;23;20169;-76
2024/03/28 11:58:19;;;;;;;0.20;0.20;;;8.50;99.90;;;;;;6246025;23;20670;-76
2024/03/28 12:00:45;;;;;;;0.50;0.50;;;8.50;99.90;;;;;;6220093;23;20173;-76
2024/03/28 12:03:12;;;;;;;0.30;0.30;;;8.40;99.90;;;;;;6247200;23;20169;-75
2024/03/28 12:05:38;;;;;;;0.20;0.20;;;8.40;99.90;;;;;;6246838;23;20629;-76
2024/03/28 12:08:05;;;;;;;2.38;1.40;;;8.40;99.90;;;;;;6247097;23;20201;-76
2024/03/28 12:10:32;;;;;;;0.30;0.30;;;8.40;99.90;;;;;;6246871;23;20630;-76
2024/03/28 12:13:00;;;;;;;0.30;0.30;;;8.40;99.90;;;;;;6246722;23;20169;-76
2024/03/28 12:15:25;;;;;;;0.30;0.30;;;8.50;99.90;;;;;;6246805;23;20161;-76
2024/03/28 12:17:56;;;;;;;0.40;0.40;;;8.60;99.90;;;;;;6246850;23;20172;-76
2024/03/28 12:20:22;;;;;;;0.30;0.30;;;8.70;99.90;;;;;;6246567;23;20199;-76
2024/03/28 12:22:57;;;;;;;0.30;0.30;;;8.80;99.90;;;;;;6247049;23;20510;-76
2024/03/28 12:25:24;;;;;;;0.30;0.30;;;8.90;99.90;;;;;;6246780;23;20180;-76
2024/03/28 12:28:00;;;;;;;0.40;0.40;;;9.00;99.90;;;;;;6246946;23;20199;-76
2024/03/28 12:30:26;;;;;;;0.63;0.63;;;9.00;99.90;;;;;;6253004;22;20525;-76
2024/03/28 12:33:05;;;;;;;1.20;0.73;;;9.00;99.90;;;;;;6277259;22;20177;-76
2024/03/28 12:35:33;;;;;;;0.30;0.30;;;9.00;99.90;;;;;;6277167;22;20239;-76
2024/03/28 12:38:01;;;;;;;0.43;0.43;;;9.00;99.90;;;;;;6277477;22;20614;-76
2024/03/28 12:40:27;;;;;;;0.30;0.30;;;9.00;99.90;;;;;;6277126;22;20198;-76
2024/03/28 12:42:54;;;;;;;0.32;0.32;;;9.10;99.90;;;;;;6277287;22;20621;-77
2024/03/28 12:45:22;;;;;;;0.45;0.45;;;9.10;99.90;;;;;;6277245;22;20621;-76
2024/03/28 12:47:50;;;;;;;0.20;0.20;;;9.20;99.90;;;;;;6277223;22;20164;-76
2024/03/28 12:50:19;;;;;;;0.40;0.40;;;9.20;99.90;;;;;;6277385;22;20172;-76
2024/03/28 12:52:46;;;;;;;0.70;0.70;;;9.10;99.90;;;;;;6277390;22;20171;-76
2024/03/28 12:55:12;;;;;;;0.30;0.30;;;9.00;99.90;;;;;;6277191;22;20188;-76
2024/03/28 12:57:38;;;;;;;0.55;0.50;;;9.10;99.90;;;;;;6249848;22;20169;-75
2024/03/28 13:00:04;;;;;;;0.65;0.50;;;9.00;99.90;;;;;;6277234;22;20239;-76
2024/03/28 13:02:30;;;;;;;2.53;1.30;;;9.00;99.90;;;;;;6277128;22;20168;-76
2024/03/28 13:04:56;;;;;;;0.30;0.30;;;9.00;99.90;;;;;;6277100;22;20644;-75
2024/03/28 13:07:22;;;;;;;0.35;0.35;;;9.00;99.90;;;;;;6276772;22;20170;-76
2024/03/28 13:09:47;;;;;;;0.50;0.50;;;9.00;99.90;;;;;;6276404;22;20265;-75
2024/03/28 13:12:13;;;;;;;0.40;0.40;;;9.00;99.90;;;;;;6277183;22;20509;-75
2024/03/28 13:14:39;;;;;;;0.30;0.30;;;9.00;99.90;;;;;;6276716;22;20294;-76
2024/03/28 13:17:05;;;;;;;0.30;0.30;;;9.00;99.90;;;;;;6276998;22;20203;-76
2024/03/28 13:19:32;;;;;;;0.60;0.60;;;9.00;99.90;;;;;;6249633;22;20172;-76
2024/03/28 13:21:58;;;;;;;0.30;0.30;;;9.00;99.90;;;;;;6276933;22;20165;-76
2024/03/28 13:24:24;;;;;;;0.30;0.30;;;9.00;99.90;;;;;;6276887;22;20191;-75
2024/03/28 13:26:51;;;;;;;0.30;0.30;;;8.90;99.90;;;;;;6277009;22;20168;-75
2024/03/28 13:29:16;;;;;;;0.40;0.40;;;8.90;99.90;;;;;;6276961;22;20614;-75
2024/03/28 13:31:43;;;;;;;0.30;0.30;;;8.80;99.90;;;;;;6276809;22;20195;-76
2024/03/28 13:34:08;;;;;;;0.30;0.30;;;8.90;99.90;;;;;;6276791;22;20581;-76
2024/03/28 13:36:34;;;;;;;3.60;1.17;;;8.90;99.90;;;;;;6276683;22;20196;-75
2024/03/28 13:39:00;;;;;;;0.60;0.60;;;9.00;99.90;;;;;;6276947;22;20164;-76
2024/03/28 13:41:25;;;;;;;0.30;0.30;;;9.00;99.90;;;;;;6276583;22;20164;-76
2024/03/28 13:43:51;;;;;;;1.48;0.77;;;9.00;99.90;;;;;;6276786;22;20251;-76
2024/03/28 13:46:17;;;;;;;0.30;0.30;;;9.10;99.90;;;;;;6276713;22;20164;-75
2024/03/28 13:48:42;;;;;;;0.60;0.60;;;9.00;99.90;;;;;;6276447;22;20214;-75
2024/03/28 13:51:08;;;;;;;1.98;1.65;;;9.00;99.90;;;;;;6249552;22;20314;-75
2024/03/28 13:53:35;;;;;;;0.30;0.30;;;9.00;99.90;;;;;;6276445;22;20226;-75
2024/03/28 13:56:01;;;;;;;0.30;0.30;;;9.10;99.90;;;;;;6249440;22;20500;-76
2024/03/28 13:58:27;;;;;;;0.30;0.30;;;9.10;99.90;;;;;;6249459;22;20247;-76
2024/03/28 14:00:53;;;;;;;0.30;0.30;;;9.10;99.90;;;;;;6276724;22;20168;-76
2024/03/28 14:03:19;;;;;;;0.73;0.73;;;9.10;99.90;;;;;;6276402;22;20172;-77
2024/03/28 14:05:44;;;;;;;0.40;0.40;;;9.10;99.90;;;;;;6276524;22;20499;-76
2024/03/28 14:08:10;;;;;;;0.20;0.20;;;9.00;99.90;;;;;;6276554;22;20175;-77
2024/03/28 14:10:39;;;;;;;0.55;0.55;;;9.00;99.90;;;;;;6275892;22;20507;-76
2024/03/28 14:13:05;;;;;;;0.40;0.40;;;9.00;99.90;;;;;;6249436;22;20606;-77
2024/03/28 14:15:33;;;;;;;1.65;0.77;;;8.90;99.90;;;;;;6276350;22;20165;-76
2024/03/28 14:17:59;;;;;;;0.30;0.30;;;8.90;99.90;;;;;;6276580;22;20168;-76
2024/03/28 14:20:25;;;;;;;0.30;0.30;;;8.90;99.90;;;;;;6276068;22;20544;-76
2024/03/28 14:22:50;;;;;;;0.20;0.20;;;9.00;99.90;;;;;;6249223;22;20171;-76
2024/03/28 14:25:16;;;;;;;0.30;0.30;;;9.00;99.90;;;;;;6276407;22;20173;-76
2024/03/28 14:27:42;;;;;;;0.20;0.20;;;9.00;99.90;;;;;;6276152;22;20173;-77
2024/03/28 14:30:08;;;;;;;0.30;0.30;;;8.90;99.90;;;;;;6276178;22;20176;-76
2024/03/28 14:32:34;;;;;;;0.80;0.80;;;8.90;99.90;;;;;;6276087;22;20347;-76
2024/03/28 14:35:00;;;;;;;0.30;0.30;;;8.80;99.90;;;;;;6276222;22;20657;-76
2024/03/28 14:37:25;;;;;;;0.20;0.20;;;8.90;99.90;;;;;;6276140;22;20172;-76
2024/03/28 14:39:51;;;;;;;0.40;0.40;;;8.90;99.90;;;;;;6276308;22;20194;-76
2024/03/28 14:42:16;;;;;;;0.45;0.45;;;8.80;99.90;;;;;;6249147;22;20168;-77
2024/03/28 14:44:44;;;;;;;0.32;0.32;;;8.90;99.90;;;;;;6248976;22;20180;-76
2024/03/28 14:47:11;;;;;;;0.30;0.30;;;8.90;99.90;;;;;;6276316;22;20550;-76
2024/03/28 14:49:37;;;;;;;0.85;0.82;;;8.80;99.90;;;;;;6276068;22;20168;-76
2024/03/28 14:52:03;;;;;;;0.30;0.30;;;8.80;99.90;;;;;;6249136;22;20176;-77
2024/03/28 14:54:30;;;;;;;0.30;0.30;;;8.90;99.90;;;;;;6275736;22;20183;-76
2024/03/28 14:56:55;;;;;;;0.30;0.30;;;9.00;99.90;;;;;;6276166;22;20164;-77
2024/03/28 14:59:26;;;;;;;0.20;0.20;;;9.00;99.90;;;;;;6275893;22;20168;-77
2024/03/28 15:01:55;;;;;;;0.30;0.30;;;9.10;99.90;;;;;;6276073;22;20171;-76
2024/03/28 15:04:21;;;;;;;0.38;0.38;;;9.20;99.90;;;;;;6275817;22;20168;-76
2024/03/28 15:06:47;;;;;;;0.40;0.40;;;9.20;99.90;;;;;;6275865;22;20172;-76